createdAt,value
2023-02-15T00:00:12.508Z,102199.44
2023-02-15T00:03:00.346Z,102189.41
2023-02-15T00:05:30.591Z,102190.25
2023-02-15T00:07:58.477Z,102192.78
2023-02-15T00:10:26.683Z,102195.94
2023-02-15T00:12:54.524Z,102187.03
2023-02-15T00:15:22.928Z,102184.50
2023-02-15T00:17:50.795Z,102187.78
2023-02-15T00:20:20.448Z,102186.47
2023-02-15T00:22:48.319Z,102188.25
2023-02-15T00:25:16.511Z,102197.06
2023-02-15T00:27:44.406Z,102188.81
2023-02-15T00:30:13.132Z,102192.25
2023-02-15T00:32:40.995Z,102195.34
2023-02-15T00:35:10.766Z,102183.50
2023-02-15T00:37:38.764Z,102183.16
2023-02-15T00:40:07.981Z,102186.44
2023-02-15T00:42:35.968Z,102181.31
2023-02-15T00:45:04.268Z,102177.38
2023-02-15T00:47:33.538Z,102171.13
2023-02-15T00:50:01.972Z,102168.09
2023-02-15T00:52:30.076Z,102170.34
2023-02-15T00:54:58.408Z,102167.84
2023-02-15T00:57:26.246Z,102171.78
2023-02-15T00:59:54.509Z,102169.28
2023-02-15T01:02:22.524Z,102162.13
2023-02-15T01:04:50.789Z,102156.28
2023-02-15T01:07:18.734Z,102160.72
2023-02-15T01:09:47.009Z,102155.84
2023-02-15T01:12:14.994Z,102156.19
2023-02-15T01:14:43.343Z,102161.50
2023-02-15T01:17:11.442Z,102158.78
2023-02-15T01:19:39.885Z,102152.78
2023-02-15T01:22:08.399Z,102151.09
2023-02-15T01:24:37.637Z,102151.66
2023-02-15T01:27:05.628Z,102148.94
2023-02-15T01:29:33.885Z,102155.78
2023-02-15T01:32:02.092Z,102150.25
2023-02-15T01:34:31.129Z,102154.81
2023-02-15T01:36:59.028Z,102151.34
2023-02-15T01:39:27.633Z,102154.38
2023-02-15T01:41:55.661Z,102150.72
2023-02-15T01:45:00.177Z,102151.44
2023-02-15T01:47:42.292Z,102143.41
2023-02-15T01:50:22.641Z,102143.47
2023-02-15T01:52:56.957Z,102142.97
2023-02-15T01:55:29.759Z,102142.91
2023-02-15T01:57:57.736Z,102134.03
2023-02-15T02:00:26.457Z,102142.28
2023-02-15T02:02:58.467Z,102139.31
2023-02-15T02:05:27.476Z,102140.81
2023-02-15T02:07:59.847Z,102136.97
2023-02-15T02:10:29.396Z,102138.59
2023-02-15T02:13:06.066Z,102135.56
2023-02-15T02:15:57.735Z,102138.69
2023-02-15T02:18:34.626Z,102137.38
2023-02-15T02:21:31.669Z,102132.66
2023-02-15T02:24:12.647Z,102130.50
2023-02-15T02:26:59.094Z,102130.13
2023-02-15T02:29:42.199Z,102131.91
2023-02-15T02:32:48.817Z,102131.31
2023-02-15T02:35:45.930Z,102123.66
2023-02-15T02:38:28.736Z,102122.47
2023-02-15T02:41:19.028Z,102117.34
2023-02-15T02:43:50.509Z,102119.34
2023-02-15T02:46:27.581Z,102119.16
2023-02-15T02:48:57.889Z,102122.22
2023-02-15T02:51:25.945Z,102112.66
2023-02-15T02:53:58.293Z,102108.84
2023-02-15T02:56:33.197Z,102111.59
2023-02-15T02:59:09.007Z,102108.41
2023-02-15T03:02:01.027Z,102096.81
2023-02-15T03:04:37.716Z,102090.19
2023-02-15T03:07:11.466Z,102092.16
2023-02-15T03:09:44.478Z,102088.47
2023-02-15T03:12:16.369Z,102088.22
2023-02-15T03:14:51.649Z,102092.41
2023-02-15T03:17:23.959Z,102086.06
2023-02-15T03:19:55.999Z,102077.28
2023-02-15T03:22:34.710Z,102076.19
2023-02-15T03:25:16.300Z,102070.63
2023-02-15T03:27:48.774Z,102076.66
2023-02-15T03:30:22.781Z,102067.00
2023-02-15T03:32:52.967Z,102069.09
2023-02-15T03:35:26.004Z,102070.44
2023-02-15T03:38:02.164Z,102064.56
2023-02-15T03:40:59.804Z,102068.25
2023-02-15T03:44:00.574Z,102061.75
2023-02-15T03:46:54.084Z,102061.13
2023-02-15T03:49:47.381Z,102055.66
2023-02-15T03:52:17.712Z,102051.81
2023-02-15T03:54:48.834Z,102054.19
2023-02-15T03:57:39.766Z,102053.16
2023-02-15T04:00:35.983Z,102054.22
2023-02-15T04:03:16.292Z,102055.13
2023-02-15T04:05:45.553Z,102055.50
2023-02-15T04:08:14.279Z,102054.56
2023-02-15T04:10:54.493Z,102056.06
2023-02-15T04:13:32.981Z,102050.53
2023-02-15T04:16:08.153Z,102051.66
2023-02-15T04:19:01.300Z,102052.28
2023-02-15T04:21:49.539Z,102045.69
2023-02-15T04:24:37.008Z,102045.94
2023-02-15T04:27:06.838Z,102045.38
2023-02-15T04:29:35.268Z,102047.25
2023-02-15T04:32:03.782Z,102043.50
2023-02-15T04:34:32.126Z,102055.66
2023-02-15T04:37:00.016Z,102045.97
2023-02-15T04:39:28.269Z,102047.09
2023-02-15T04:41:56.218Z,102051.00
2023-02-15T04:44:24.524Z,102058.72
2023-02-15T04:46:52.297Z,102048.84
2023-02-15T04:49:20.543Z,102048.53
2023-02-15T04:51:48.573Z,102054.09
2023-02-15T04:54:16.838Z,102058.03
2023-02-15T04:56:44.780Z,102056.50
2023-02-15T04:59:13.566Z,102056.09
2023-02-15T05:01:41.436Z,102058.97
2023-02-15T05:04:10.568Z,102060.59
2023-02-15T05:06:38.424Z,102053.50
2023-02-15T05:09:06.657Z,102053.81
2023-02-15T05:11:34.633Z,102051.66
2023-02-15T05:14:02.886Z,102041.59
2023-02-15T05:16:30.911Z,102046.34
2023-02-15T05:18:59.455Z,102048.38
2023-02-15T05:21:27.605Z,102047.56
2023-02-15T05:23:56.035Z,102050.72
2023-02-15T05:26:44.237Z,102054.00
2023-02-15T05:29:12.518Z,102058.34
2023-02-15T05:31:40.635Z,102054.63
2023-02-15T05:34:09.072Z,102058.16
2023-02-15T05:36:36.912Z,102052.16
2023-02-15T05:39:07.043Z,102054.94
2023-02-15T05:41:34.861Z,102054.78
2023-02-15T05:44:03.115Z,102061.38
2023-02-15T05:46:31.044Z,102066.50
2023-02-15T05:48:59.381Z,102061.97
2023-02-15T05:51:27.291Z,102057.72
2023-02-15T05:53:55.684Z,102067.09
2023-02-15T05:56:23.555Z,102070.38
2023-02-15T05:58:54.288Z,102066.19
2023-02-15T06:01:24.125Z,102068.59
2023-02-15T06:03:53.318Z,102073.91
2023-02-15T06:06:21.182Z,102075.66
2023-02-15T06:08:49.830Z,102071.78
2023-02-15T06:11:17.795Z,102068.47
2023-02-15T06:13:46.076Z,102084.25
2023-02-15T06:16:13.970Z,102085.72
2023-02-15T06:18:42.382Z,102087.66
2023-02-15T06:21:10.348Z,102087.66
2023-02-15T06:23:39.053Z,102090.81
2023-02-15T06:26:06.905Z,102100.44
2023-02-15T06:28:35.242Z,102086.75
2023-02-15T06:31:03.128Z,102096.16
2023-02-15T06:33:37.527Z,102101.72
2023-02-15T06:36:05.484Z,102100.41
2023-02-15T06:38:33.870Z,102101.59
2023-02-15T06:41:01.805Z,102104.56
2023-02-15T06:43:29.909Z,102107.31
2023-02-15T06:45:57.863Z,102112.34
2023-02-15T06:48:26.222Z,102108.75
2023-02-15T06:50:54.071Z,102111.41
2023-02-15T06:53:22.231Z,102104.25
2023-02-15T06:55:50.042Z,102109.41
2023-02-15T06:58:18.273Z,102109.47
2023-02-15T07:00:46.192Z,102104.97
2023-02-15T07:03:16.115Z,102109.91
2023-02-15T07:05:44.932Z,102107.47
2023-02-15T07:08:13.199Z,102110.13
2023-02-15T07:10:45.018Z,102109.31
2023-02-15T07:13:13.206Z,102112.13
2023-02-15T07:15:41.109Z,102110.75
2023-02-15T07:18:10.541Z,102119.38
2023-02-15T07:20:39.270Z,102116.94
2023-02-15T07:23:07.466Z,102119.19
2023-02-15T07:25:36.097Z,102117.53
2023-02-15T07:28:05.264Z,102110.00
2023-02-15T07:30:33.236Z,102114.66
2023-02-15T07:33:39.832Z,102108.97
2023-02-15T07:36:08.311Z,102106.56
2023-02-15T07:38:38.302Z,102099.34
2023-02-15T07:41:12.681Z,102102.84
2023-02-15T07:43:43.447Z,102110.81
2023-02-15T07:46:14.463Z,102109.81
2023-02-15T07:48:43.417Z,102114.06
2023-02-15T07:51:12.805Z,102114.34
2023-02-15T07:53:41.675Z,102113.34
2023-02-15T07:56:13.923Z,102117.81
2023-02-15T07:58:51.862Z,102123.44
2023-02-15T08:01:36.429Z,102114.59
2023-02-15T08:04:07.555Z,102120.59
2023-02-15T08:06:37.224Z,102112.69
2023-02-15T08:09:08.588Z,102112.56
2023-02-15T08:11:38.810Z,102116.00
2023-02-15T08:14:13.157Z,102118.25
2023-02-15T08:16:54.162Z,102116.00
2023-02-15T08:19:28.013Z,102118.44
2023-02-15T08:21:58.561Z,102114.50
2023-02-15T08:24:30.348Z,102123.19
2023-02-15T08:26:59.601Z,102125.59
2023-02-15T08:29:29.562Z,102113.09
2023-02-15T08:32:03.389Z,102118.94
2023-02-15T08:34:35.667Z,102105.09
2023-02-15T08:37:03.837Z,102112.84
2023-02-15T08:39:32.213Z,102121.13
2023-02-15T08:42:00.431Z,102119.41
2023-02-15T08:44:28.872Z,102116.25
2023-02-15T08:46:59.855Z,102118.13
2023-02-15T08:49:28.042Z,102117.03
2023-02-15T08:51:55.914Z,102105.69
2023-02-15T08:54:24.457Z,102116.13
2023-02-15T08:56:52.604Z,102108.75
2023-02-15T08:59:23.478Z,102111.31
2023-02-15T09:01:53.087Z,102104.56
2023-02-15T09:04:22.137Z,102109.44
2023-02-15T09:06:51.043Z,102110.06
2023-02-15T09:09:20.355Z,102109.00
2023-02-15T09:11:55.833Z,102103.84
2023-02-15T09:14:28.142Z,102104.75
2023-02-15T09:16:56.611Z,102092.94
2023-02-15T09:19:25.832Z,102106.56
2023-02-15T09:21:54.852Z,102101.25
2023-02-15T09:24:22.791Z,102103.84
2023-02-15T09:26:51.163Z,102105.09
2023-02-15T09:29:20.041Z,102104.56
2023-02-15T09:31:51.258Z,102106.84
2023-02-15T09:34:22.618Z,102104.38
2023-02-15T09:36:52.220Z,102099.06
2023-02-15T09:39:25.412Z,102105.56
2023-02-15T09:41:56.224Z,102099.38
2023-02-15T09:44:33.204Z,102099.59
2023-02-15T09:47:07.576Z,102103.16
2023-02-15T09:49:44.173Z,102098.00
2023-02-15T09:52:12.296Z,102097.41
2023-02-15T09:55:09.748Z,102096.91
2023-02-15T09:57:54.879Z,102098.38
2023-02-15T10:00:51.020Z,102097.97
2023-02-15T10:03:40.591Z,102089.53
2023-02-15T10:06:33.666Z,102092.19
2023-02-15T10:09:20.344Z,102086.13
2023-02-15T10:11:54.590Z,102084.97
2023-02-15T10:14:41.241Z,102089.56
2023-02-15T10:17:27.347Z,102086.34
2023-02-15T10:20:12.416Z,102085.28
2023-02-15T10:22:55.116Z,102080.50
2023-02-15T10:25:41.542Z,102080.22
2023-02-15T10:28:28.010Z,102079.09
2023-02-15T10:31:09.398Z,102082.00
2023-02-15T10:33:42.483Z,102070.53
2023-02-15T10:36:43.182Z,102070.00
2023-02-15T10:39:23.271Z,102075.47
2023-02-15T10:42:00.337Z,102071.81
2023-02-15T10:44:55.962Z,102067.88
2023-02-15T10:47:47.163Z,102064.38
2023-02-15T10:50:38.450Z,102061.44
2023-02-15T10:53:41.635Z,102060.88
2023-02-15T10:56:42.728Z,102057.59
2023-02-15T10:59:47.062Z,102048.53
2023-02-15T11:02:38.060Z,102044.69
2023-02-15T11:05:27.330Z,102046.16
2023-02-15T11:08:00.621Z,102040.69
2023-02-15T11:10:53.093Z,102037.84
2023-02-15T11:13:25.351Z,102032.97
2023-02-15T11:15:58.823Z,102028.50
2023-02-15T11:18:33.924Z,102029.94
2023-02-15T11:21:34.060Z,102021.19
2023-02-15T11:24:03.198Z,102015.91
2023-02-15T11:26:42.731Z,102008.97
2023-02-15T11:29:39.960Z,101995.50
2023-02-15T11:32:14.139Z,102004.53
2023-02-15T11:34:59.580Z,101991.16
2023-02-15T11:37:38.145Z,101988.31
2023-02-15T11:40:16.278Z,101994.06
2023-02-15T11:42:45.780Z,101979.50
2023-02-15T11:45:32.148Z,101985.31
2023-02-15T11:48:01.606Z,101981.47
2023-02-15T11:50:32.195Z,101979.34
2023-02-15T11:53:05.816Z,101968.63
2023-02-15T11:55:36.311Z,101961.78
2023-02-15T11:58:17.806Z,101965.72
2023-02-15T12:00:49.151Z,101959.97
2023-02-15T12:03:23.604Z,101964.56
2023-02-15T12:05:58.446Z,101960.66
2023-02-15T12:08:34.897Z,101958.69
2023-02-15T12:11:13.392Z,101957.41
2023-02-15T12:14:02.096Z,101961.50
2023-02-15T12:16:35.781Z,101962.09
2023-02-15T12:19:04.256Z,101948.50
2023-02-15T12:21:40.978Z,101954.81
2023-02-15T12:24:22.863Z,101947.09
2023-02-15T12:27:38.336Z,101947.28
2023-02-15T12:30:25.084Z,101946.91
2023-02-15T12:32:54.359Z,101950.31
2023-02-15T12:35:36.854Z,101943.28
2023-02-15T12:38:26.792Z,101945.88
2023-02-15T12:41:27.674Z,101942.53
2023-02-15T12:44:16.227Z,101938.41
2023-02-15T12:47:02.601Z,101946.88
2023-02-15T12:49:39.771Z,101944.13
2023-02-15T12:52:23.190Z,101928.06
2023-02-15T12:54:51.818Z,101920.53
2023-02-15T12:57:34.137Z,101920.06
2023-02-15T13:00:25.744Z,101913.00
2023-02-15T13:02:56.580Z,101911.38
2023-02-15T13:05:45.118Z,101906.63
2023-02-15T13:08:18.063Z,101904.31
2023-02-15T13:11:05.157Z,101887.97
2023-02-15T13:13:37.504Z,101898.91
2023-02-15T13:16:15.313Z,101889.22
2023-02-15T13:18:48.473Z,101879.69
2023-02-15T13:21:37.751Z,101870.84
2023-02-15T13:24:22.396Z,101871.06
2023-02-15T13:26:51.023Z,101877.72
2023-02-15T13:29:24.942Z,101871.91
2023-02-15T13:31:54.924Z,101866.09
2023-02-15T13:34:25.906Z,101871.13
2023-02-15T13:37:31.486Z,101875.56
2023-02-15T13:40:09.403Z,101864.13
2023-02-15T13:42:54.303Z,101848.75
2023-02-15T13:45:37.702Z,101851.38
2023-02-15T13:48:46.869Z,101859.44
2023-02-15T13:51:46.395Z,101858.22
2023-02-15T13:54:33.424Z,101856.94
2023-02-15T13:57:27.454Z,101857.41
2023-02-15T14:00:00.036Z,101864.00
2023-02-15T14:02:28.144Z,101857.53
2023-02-15T14:05:32.058Z,101841.31
2023-02-15T14:08:10.023Z,101851.69
2023-02-15T14:10:58.372Z,101859.72
2023-02-15T14:13:45.244Z,101857.53
2023-02-15T14:16:30.572Z,101848.94
2023-02-15T14:19:24.999Z,101853.75
2023-02-15T14:22:34.704Z,101852.13
2023-02-15T14:25:27.402Z,101854.16
2023-02-15T14:28:17.822Z,101856.06
2023-02-15T14:30:50.362Z,101863.41
2023-02-15T14:33:34.765Z,101855.75
2023-02-15T14:36:07.379Z,101852.38
2023-02-15T14:38:57.174Z,101852.88
2023-02-15T14:41:43.796Z,101856.94
2023-02-15T14:44:32.274Z,101853.88
2023-02-15T14:47:19.826Z,101853.38
2023-02-15T14:49:47.865Z,101848.59
2023-02-15T14:52:16.283Z,101845.66
2023-02-15T14:54:46.992Z,101852.47
2023-02-15T14:57:15.101Z,101845.50
2023-02-15T14:59:58.606Z,101852.59
2023-02-15T15:02:51.014Z,101848.84
2023-02-15T15:05:36.140Z,101850.06
2023-02-15T15:08:06.620Z,101843.34
2023-02-15T15:10:43.298Z,101841.56
2023-02-15T15:13:33.514Z,101840.16
2023-02-15T15:16:39.710Z,101845.59
2023-02-15T15:19:11.833Z,101842.28
2023-02-15T15:21:51.850Z,101844.88
2023-02-15T15:24:38.691Z,101837.69
2023-02-15T15:27:41.301Z,101845.09
2023-02-15T15:30:15.532Z,101845.50
2023-02-15T15:33:13.027Z,101847.84
2023-02-15T15:36:08.591Z,101840.06
2023-02-15T15:38:39.208Z,101840.19
2023-02-15T15:41:34.555Z,101836.34
2023-02-15T15:44:20.801Z,101838.63
2023-02-15T15:47:17.864Z,101830.19
2023-02-15T15:49:45.849Z,101831.66
2023-02-15T15:52:19.937Z,101831.31
2023-02-15T15:54:51.368Z,101823.81
2023-02-15T15:57:33.490Z,101826.50
2023-02-15T16:00:01.401Z,101828.06
2023-02-15T16:02:29.745Z,101817.94
2023-02-15T16:05:10.620Z,101827.06
2023-02-15T16:07:42.311Z,101823.81
2023-02-15T16:10:26.981Z,101831.44
2023-02-15T16:12:56.036Z,101824.50
2023-02-15T16:15:27.489Z,101828.22
2023-02-15T16:17:59.107Z,101830.69
2023-02-15T16:20:35.317Z,101836.81
2023-02-15T16:23:15.885Z,101834.72
2023-02-15T16:25:55.520Z,101832.41
2023-02-15T16:28:24.217Z,101838.72
2023-02-15T16:31:18.586Z,101842.53
2023-02-15T16:33:47.318Z,101843.16
2023-02-15T16:36:24.308Z,101856.81
2023-02-15T16:38:52.433Z,101860.13
2023-02-15T16:41:32.310Z,101866.41
2023-02-15T16:44:08.905Z,101862.25
2023-02-15T16:46:45.085Z,101873.38
2023-02-15T16:49:28.827Z,101870.41
2023-02-15T16:52:07.086Z,101872.59
2023-02-15T16:54:36.590Z,101877.28
2023-02-15T16:57:04.737Z,101877.19
2023-02-15T16:59:45.599Z,101883.06
2023-02-15T17:02:40.204Z,101878.03
2023-02-15T17:05:18.696Z,101886.75
2023-02-15T17:08:15.895Z,101883.03
2023-02-15T17:11:05.689Z,101893.22
2023-02-15T17:13:33.886Z,101891.28
2023-02-15T17:16:02.471Z,101898.94
2023-02-15T17:18:34.060Z,101900.22
2023-02-15T17:21:13.411Z,101892.75
2023-02-15T17:23:44.376Z,101893.19
2023-02-15T17:26:25.155Z,101894.63
2023-02-15T17:29:00.326Z,101901.44
2023-02-15T17:31:34.209Z,101895.72
2023-02-15T17:34:04.057Z,101902.19
2023-02-15T17:36:33.058Z,101898.97
2023-02-15T17:39:07.695Z,101896.38
2023-02-15T17:41:38.517Z,101894.09
2023-02-15T17:44:08.907Z,101901.41
2023-02-15T17:46:38.629Z,101900.06
2023-02-15T17:49:07.000Z,101898.63
2023-02-15T17:51:36.646Z,101893.84
2023-02-15T17:54:23.165Z,101906.13
2023-02-15T17:56:51.439Z,101910.53
2023-02-15T17:59:19.433Z,101916.88
2023-02-15T18:02:08.393Z,101922.09
2023-02-15T18:04:56.332Z,101925.16
2023-02-15T18:07:43.525Z,101913.75
2023-02-15T18:10:35.510Z,101914.88
2023-02-15T18:13:04.203Z,101918.81
2023-02-15T18:15:32.238Z,101926.59
2023-02-15T18:18:00.564Z,101919.38
2023-02-15T18:20:35.031Z,101919.66
2023-02-15T18:23:03.427Z,101927.72
2023-02-15T18:25:31.351Z,101932.09
2023-02-15T18:27:59.576Z,101927.81
2023-02-15T18:30:27.795Z,101928.56
2023-02-15T18:32:58.170Z,101927.69
2023-02-15T18:35:30.133Z,101932.53
2023-02-15T18:38:01.205Z,101934.50
2023-02-15T18:40:29.666Z,101926.28
2023-02-15T18:42:57.959Z,101926.06
2023-02-15T18:45:33.307Z,101921.59
2023-02-15T18:48:02.224Z,101929.66
2023-02-15T18:50:33.930Z,101922.31
2023-02-15T18:53:04.575Z,101926.47
2023-02-15T18:55:33.965Z,101917.88
2023-02-15T18:58:02.736Z,101922.53
2023-02-15T19:00:35.200Z,101924.16
2023-02-15T19:03:03.822Z,101921.97
2023-02-15T19:05:33.354Z,101927.03
2023-02-15T19:08:02.844Z,101919.88
2023-02-15T19:10:33.314Z,101918.28
2023-02-15T19:13:01.819Z,101926.19
2023-02-15T19:15:30.759Z,101922.38
2023-02-15T19:17:59.135Z,101923.19
2023-02-15T19:20:34.295Z,101927.94
2023-02-15T19:23:03.234Z,101924.41
2023-02-15T19:25:34.506Z,101929.44
2023-02-15T19:28:16.710Z,101926.75
2023-02-15T19:30:45.015Z,101929.50
2023-02-15T19:33:19.300Z,101923.34
2023-02-15T19:35:53.348Z,101934.56
2023-02-15T19:38:27.230Z,101935.44
2023-02-15T19:41:02.496Z,101927.41
2023-02-15T19:43:31.333Z,101932.88
2023-02-15T19:45:59.897Z,101924.97
2023-02-15T19:48:29.180Z,101923.38
2023-02-15T19:50:58.093Z,101932.97
2023-02-15T19:53:29.407Z,101937.25
2023-02-15T19:55:58.725Z,101936.88
2023-02-15T19:58:28.176Z,101936.75
2023-02-15T20:00:57.365Z,101935.28
2023-02-15T20:03:27.526Z,101931.66
2023-02-15T20:05:56.874Z,101936.06
2023-02-15T20:08:26.591Z,101937.25
2023-02-15T20:10:55.365Z,101934.19
2023-02-15T20:13:24.146Z,101938.63
2023-02-15T20:15:53.466Z,101943.09
2023-02-15T20:18:22.984Z,101933.91
2023-02-15T20:20:54.576Z,101939.22
2023-02-15T20:23:40.019Z,101939.78
2023-02-15T20:26:19.540Z,101939.78
2023-02-15T20:28:49.914Z,101937.88
2023-02-15T20:31:21.764Z,101945.75
2023-02-15T20:33:51.590Z,101947.38
2023-02-15T20:36:24.017Z,101948.78
2023-02-15T20:38:54.214Z,101943.53
2023-02-15T20:41:38.651Z,101948.00
2023-02-15T20:44:25.139Z,101950.81
2023-02-15T20:46:58.558Z,101954.06
2023-02-15T20:49:27.873Z,101958.13
2023-02-15T20:51:57.288Z,101955.00
2023-02-15T20:54:29.192Z,101953.59
2023-02-15T20:56:57.405Z,101957.31
2023-02-15T20:59:32.077Z,101962.09
2023-02-15T21:02:02.878Z,101959.94
2023-02-15T21:04:33.756Z,101971.19
2023-02-15T21:07:01.773Z,101968.88
2023-02-15T21:09:30.146Z,101961.06
2023-02-15T21:12:01.506Z,101975.50
2023-02-15T21:14:29.732Z,101969.28
2023-02-15T21:16:57.723Z,101963.78
2023-02-15T21:19:26.057Z,101963.03
2023-02-15T21:21:54.342Z,101956.38
2023-02-15T21:24:26.120Z,101966.03
2023-02-15T21:26:55.660Z,101962.84
2023-02-15T21:29:27.100Z,101964.88
2023-02-15T21:31:55.230Z,101963.56
2023-02-15T21:34:23.652Z,101964.19
2023-02-15T21:36:51.551Z,101961.84
2023-02-15T21:39:23.902Z,101959.69
2023-02-15T21:42:12.254Z,101954.63
2023-02-15T21:44:59.105Z,101954.66
2023-02-15T21:47:50.774Z,101962.44
2023-02-15T21:50:40.960Z,101955.50
2023-02-15T21:53:18.418Z,101954.69
2023-02-15T21:55:46.522Z,101961.09
2023-02-15T21:58:20.711Z,101953.63
2023-02-15T22:00:49.448Z,101953.09
2023-02-15T22:03:17.356Z,101968.03
2023-02-15T22:05:45.392Z,101954.94
2023-02-15T22:08:14.388Z,101949.69
2023-02-15T22:10:43.401Z,101955.25
2023-02-15T22:13:19.937Z,101952.84
2023-02-15T22:15:48.142Z,101965.38
2023-02-15T22:18:25.178Z,101961.41
2023-02-15T22:20:54.694Z,101963.53
2023-02-15T22:23:23.778Z,101963.00
2023-02-15T22:25:58.653Z,101956.59
2023-02-15T22:28:35.872Z,101965.44
2023-02-15T22:31:06.829Z,101965.16
2023-02-15T22:33:35.116Z,101964.59
2023-02-15T22:36:04.152Z,101958.97
2023-02-15T22:38:32.568Z,101959.00
2023-02-15T22:41:04.670Z,101964.09
2023-02-15T22:43:41.405Z,101959.88
2023-02-15T22:46:19.177Z,101962.25
2023-02-15T22:48:48.448Z,101956.91
2023-02-15T22:51:20.242Z,101955.59
2023-02-15T22:53:49.902Z,101962.00
2023-02-15T22:56:42.258Z,101957.47
2023-02-15T22:59:30.032Z,101959.31
2023-02-15T23:01:58.407Z,101957.72
2023-02-15T23:04:29.324Z,101967.31
2023-02-15T23:07:00.759Z,101970.00
2023-02-15T23:09:28.478Z,101959.31
2023-02-15T23:11:57.342Z,101963.09
2023-02-15T23:14:34.671Z,101962.78
2023-02-15T23:17:03.037Z,101972.38
2023-02-15T23:19:30.812Z,101966.81
2023-02-15T23:21:58.799Z,101976.94
2023-02-15T23:24:34.814Z,101967.63
2023-02-15T23:27:21.794Z,101968.41
2023-02-15T23:29:49.611Z,101975.06
2023-02-15T23:32:17.863Z,101968.94
2023-02-15T23:34:45.684Z,101966.00
2023-02-15T23:37:15.695Z,101968.13
2023-02-15T23:40:02.394Z,101963.06
2023-02-15T23:42:33.818Z,101950.81
2023-02-15T23:45:02.716Z,101949.19
2023-02-15T23:47:52.265Z,101951.63
2023-02-15T23:50:23.164Z,101950.78
2023-02-15T23:52:52.674Z,101951.81
2023-02-15T23:55:21.433Z,101954.22
2023-02-15T23:57:50.197Z,101945.44
